createdAt,value
2022-10-16T00:06:32.820Z,100.00
2022-10-16T00:16:06.852Z,100.00
2022-10-16T00:25:41.130Z,100.00
2022-10-16T00:35:14.605Z,100.00
2022-10-16T00:44:48.982Z,100.00
2022-10-16T00:54:23.270Z,100.00
2022-10-16T00:55:27.374Z,100.00
2022-10-16T01:04:59.395Z,100.00
2022-10-16T01:14:33.994Z,100.00
2022-10-16T01:24:09.444Z,100.00
2022-10-16T01:33:43.331Z,100.00
2022-10-16T01:43:16.316Z,100.00
2022-10-16T01:52:52.220Z,100.00
2022-10-16T02:02:25.218Z,100.00
2022-10-16T02:11:59.575Z,100.00
2022-10-16T02:21:35.374Z,99.61
2022-10-16T02:31:08.025Z,99.20
2022-10-16T02:40:42.541Z,99.78
2022-10-16T02:50:18.078Z,100.00
2022-10-16T02:59:50.128Z,100.00
2022-10-16T03:09:25.828Z,100.00
2022-10-16T03:18:59.953Z,100.00
2022-10-16T03:28:34.303Z,100.00
2022-10-16T03:38:08.570Z,100.00
2022-10-16T03:47:42.215Z,100.00
2022-10-16T03:57:16.448Z,99.90
2022-10-16T04:06:49.441Z,99.23
2022-10-16T04:16:25.103Z,99.04
2022-10-16T04:25:59.241Z,97.96
2022-10-16T04:35:31.113Z,98.18
2022-10-16T04:45:05.548Z,98.39
2022-10-16T04:54:41.189Z,98.63
2022-10-16T05:04:15.757Z,99.29
2022-10-16T05:13:49.914Z,99.92
2022-10-16T05:23:24.732Z,100.00
2022-10-16T05:32:57.603Z,100.00
2022-10-16T05:42:31.596Z,100.00
2022-10-16T05:52:06.156Z,100.00
2022-10-16T06:01:42.282Z,100.00
2022-10-16T06:11:15.037Z,100.00
2022-10-16T06:20:49.613Z,100.00
2022-10-16T06:30:24.401Z,100.00
2022-10-16T06:39:58.760Z,100.00
2022-10-16T06:49:35.274Z,100.00
2022-10-16T06:59:07.878Z,100.00
2022-10-16T07:08:42.558Z,100.00
2022-10-16T07:18:19.327Z,100.00
2022-10-16T07:27:54.507Z,100.00
2022-10-16T07:37:26.743Z,100.00
2022-10-16T07:47:03.205Z,100.00
2022-10-16T07:56:38.706Z,100.00
2022-10-16T08:06:10.568Z,100.00
2022-10-16T08:15:46.819Z,100.00
2022-10-16T08:16:50.778Z,100.00
2022-10-16T08:26:22.925Z,100.00
2022-10-16T08:35:57.468Z,100.00
2022-10-16T08:45:34.634Z,100.00
2022-10-16T08:55:06.159Z,100.00
2022-10-16T09:04:42.698Z,100.00
2022-10-16T09:14:17.364Z,100.00
2022-10-16T09:23:50.529Z,100.00
2022-10-16T09:24:53.092Z,100.00
2022-10-16T09:25:55.623Z,100.00
2022-10-16T09:26:59.717Z,100.00
2022-10-16T09:28:02.134Z,100.00
2022-10-16T09:29:04.722Z,100.00
2022-10-16T09:30:07.191Z,100.00
2022-10-16T09:31:11.281Z,100.00
2022-10-16T09:32:15.263Z,100.00
2022-10-16T09:33:17.557Z,100.00
2022-10-16T09:34:20.006Z,100.00
2022-10-16T09:35:22.602Z,100.00
2022-10-16T09:44:55.586Z,99.74
2022-10-16T09:54:29.868Z,100.00
2022-10-16T09:55:32.410Z,100.00
2022-10-16T09:56:36.524Z,100.00
2022-10-16T09:57:38.913Z,99.94
2022-10-16T09:58:41.430Z,98.83
2022-10-16T09:59:43.992Z,98.17
2022-10-16T10:00:46.432Z,98.27
2022-10-16T10:01:48.937Z,98.45
2022-10-16T10:02:51.482Z,98.71
2022-10-16T10:03:53.952Z,99.00
2022-10-16T10:04:56.472Z,99.06
2022-10-16T10:06:01.947Z,97.68
2022-10-16T10:07:02.907Z,96.42
2022-10-16T10:08:05.405Z,96.20
2022-10-16T10:09:07.968Z,96.01
2022-10-16T10:10:12.081Z,95.09
2022-10-16T10:11:15.909Z,95.39
2022-10-16T10:20:47.495Z,96.90
2022-10-16T10:21:50.094Z,97.48
2022-10-16T10:22:54.117Z,95.96
2022-10-16T10:23:56.518Z,96.11
2022-10-16T10:24:59.073Z,95.66
2022-10-16T10:26:03.144Z,96.13
2022-10-16T10:27:07.099Z,96.64
2022-10-16T10:28:11.163Z,96.91
2022-10-16T10:29:13.580Z,96.27
2022-10-16T10:31:18.478Z,97.32
2022-10-16T10:32:22.498Z,97.23
2022-10-16T10:33:26.473Z,96.65
2022-10-16T10:34:28.955Z,96.51
2022-10-16T10:35:32.963Z,96.77
2022-10-16T10:36:40.294Z,95.68
2022-10-16T10:37:42.480Z,94.92
2022-10-16T10:38:46.530Z,95.25
2022-10-16T10:39:50.471Z,95.32
2022-10-16T10:40:52.867Z,95.05
2022-10-16T10:41:56.923Z,94.89
2022-10-16T10:43:00.909Z,94.71
2022-10-16T10:44:04.960Z,94.43
2022-10-16T10:45:08.895Z,94.20
2022-10-16T10:46:12.915Z,93.99
2022-10-16T10:47:15.274Z,93.77
2022-10-16T10:48:17.846Z,94.32
2022-10-16T10:49:21.187Z,94.38
2022-10-16T10:50:24.318Z,94.16
2022-10-16T10:51:28.277Z,94.00
2022-10-16T10:52:32.314Z,93.91
2022-10-16T10:53:34.640Z,93.74
2022-10-16T10:54:38.666Z,94.02
2022-10-16T10:55:41.038Z,93.45
2022-10-16T10:56:43.559Z,93.24
2022-10-16T10:57:46.071Z,93.47
2022-10-16T10:58:49.512Z,93.67
2022-10-16T10:59:53.580Z,93.04
2022-10-16T11:00:55.899Z,92.49
2022-10-16T11:01:58.436Z,93.35
2022-10-16T11:03:00.871Z,92.88
2022-10-16T11:04:05.147Z,92.22
2022-10-16T11:05:07.509Z,92.17
2022-10-16T11:06:09.980Z,92.19
2022-10-16T11:07:12.507Z,92.30
2022-10-16T11:08:14.980Z,91.70
2022-10-16T11:09:17.405Z,91.93
2022-10-16T11:10:19.958Z,92.44
2022-10-16T11:11:22.493Z,92.32
2022-10-16T11:12:24.997Z,92.62
2022-10-16T11:13:29.144Z,92.00
2022-10-16T11:14:31.441Z,92.21
2022-10-16T11:15:33.924Z,92.19
2022-10-16T11:16:38.054Z,92.60
2022-10-16T11:17:40.451Z,91.89
2022-10-16T11:18:42.873Z,91.69
2022-10-16T11:19:45.387Z,92.10
2022-10-16T11:20:49.545Z,91.61
2022-10-16T11:21:53.414Z,91.52
2022-10-16T11:22:55.848Z,91.61
2022-10-16T11:23:59.957Z,91.40
2022-10-16T11:25:02.248Z,91.11
2022-10-16T11:26:04.759Z,91.81
2022-10-16T11:27:07.259Z,90.92
2022-10-16T11:28:09.743Z,91.14
2022-10-16T11:29:12.229Z,92.04
2022-10-16T11:30:14.618Z,91.34
2022-10-16T11:31:17.142Z,91.90
2022-10-16T11:32:19.562Z,92.13
2022-10-16T11:33:22.094Z,92.52
2022-10-16T11:34:24.554Z,92.61
2022-10-16T11:35:28.648Z,91.72
2022-10-16T11:36:30.998Z,91.32
2022-10-16T11:37:33.471Z,90.23
2022-10-16T11:38:35.975Z,89.97
2022-10-16T11:39:38.456Z,90.10
2022-10-16T11:40:42.533Z,89.37
2022-10-16T11:41:45.041Z,89.41
2022-10-16T11:42:47.537Z,89.39
2022-10-16T11:43:50.029Z,90.32
2022-10-16T11:44:52.536Z,90.72
2022-10-16T11:45:54.985Z,90.58
2022-10-16T11:47:00.861Z,90.49
2022-10-16T11:48:01.965Z,90.00
2022-10-16T11:49:04.029Z,90.09
2022-10-16T11:50:06.491Z,90.11
2022-10-16T11:51:10.612Z,90.80
2022-10-16T11:53:19.480Z,90.90
2022-10-16T11:54:21.766Z,91.01
2022-10-16T11:55:24.275Z,90.57
2022-10-16T11:56:26.735Z,90.69
2022-10-16T11:57:29.455Z,90.59
2022-10-16T11:58:31.737Z,90.40
2022-10-16T11:59:34.219Z,90.42
2022-10-16T12:00:36.759Z,89.92
2022-10-16T12:01:41.008Z,89.67
2022-10-16T12:02:45.018Z,89.24
2022-10-16T12:03:49.278Z,89.13
2022-10-16T12:04:49.882Z,88.38
2022-10-16T12:05:54.022Z,88.86
2022-10-16T12:06:56.348Z,88.14
2022-10-16T12:07:58.802Z,88.86
2022-10-16T12:09:01.274Z,88.88
2022-10-16T12:10:03.784Z,88.53
2022-10-16T12:11:07.855Z,88.19
2022-10-16T12:12:10.189Z,88.45
2022-10-16T12:13:12.717Z,88.49
2022-10-16T12:14:15.171Z,88.67
2022-10-16T12:15:25.919Z,87.74
2022-10-16T12:16:25.176Z,88.04
2022-10-16T12:17:27.434Z,88.62
2022-10-16T12:18:29.916Z,88.49
2022-10-16T12:19:33.472Z,88.75
2022-10-16T12:20:37.443Z,88.76
2022-10-16T12:21:41.445Z,89.46
2022-10-16T12:22:43.797Z,88.74
2022-10-16T12:23:46.335Z,87.96
2022-10-16T12:24:48.811Z,87.94
2022-10-16T12:25:52.958Z,87.72
2022-10-16T12:26:55.367Z,88.61
2022-10-16T12:27:57.871Z,86.91
2022-10-16T12:29:02.167Z,87.48
2022-10-16T12:30:04.435Z,87.89
2022-10-16T12:31:06.940Z,87.30
2022-10-16T12:32:10.943Z,86.57
2022-10-16T12:33:13.508Z,87.53
2022-10-16T12:34:15.848Z,85.82
2022-10-16T12:35:19.936Z,85.40
2022-10-16T12:36:24.855Z,85.45
2022-10-16T12:37:26.390Z,84.69
2022-10-16T12:38:28.744Z,84.35
2022-10-16T12:39:32.783Z,85.00
2022-10-16T12:40:36.795Z,84.88
2022-10-16T12:41:39.180Z,84.42
2022-10-16T12:42:43.243Z,85.02
2022-10-16T12:43:46.606Z,85.71
2022-10-16T12:44:49.050Z,85.59
2022-10-16T12:45:51.544Z,85.49
2022-10-16T12:46:54.032Z,85.79
2022-10-16T12:47:59.091Z,85.75
2022-10-16T12:49:06.793Z,85.47
2022-10-16T12:50:09.157Z,85.22
2022-10-16T12:51:07.851Z,85.45
2022-10-16T12:52:11.993Z,86.09
2022-10-16T12:53:15.960Z,86.05
2022-10-16T12:54:19.887Z,84.73
2022-10-16T12:55:22.292Z,84.60
2022-10-16T12:56:24.817Z,85.19
2022-10-16T12:57:27.596Z,85.21
2022-10-16T12:58:29.854Z,84.49
2022-10-16T12:59:32.367Z,84.88
2022-10-16T13:00:34.845Z,84.75
2022-10-16T13:01:37.365Z,85.15
2022-10-16T13:02:39.838Z,86.10
2022-10-16T13:03:44.037Z,84.82
2022-10-16T13:04:47.961Z,84.94
2022-10-16T13:05:50.317Z,85.28
2022-10-16T13:06:52.824Z,83.60
2022-10-16T13:07:55.293Z,84.11
2022-10-16T13:08:59.430Z,85.02
2022-10-16T13:10:03.257Z,85.05
2022-10-16T13:11:07.228Z,84.98
2022-10-16T13:12:09.638Z,84.56
2022-10-16T13:13:12.107Z,83.20
2022-10-16T13:14:14.592Z,83.85
2022-10-16T13:15:19.749Z,84.53
2022-10-16T13:16:21.992Z,84.48
2022-10-16T13:17:26.402Z,84.27
2022-10-16T13:18:30.140Z,82.82
2022-10-16T13:19:32.448Z,81.35
2022-10-16T13:20:34.920Z,81.09
2022-10-16T13:21:39.080Z,82.24
2022-10-16T13:22:41.409Z,83.15
2022-10-16T13:23:43.899Z,82.87
2022-10-16T13:24:46.434Z,83.55
2022-10-16T13:25:51.444Z,83.29
2022-10-16T13:26:55.405Z,83.18
2022-10-16T13:27:57.685Z,81.29
2022-10-16T13:29:00.263Z,82.25
2022-10-16T13:30:04.234Z,83.33
2022-10-16T13:31:08.290Z,82.19
2022-10-16T13:32:12.251Z,82.78
2022-10-16T13:33:14.595Z,82.17
2022-10-16T13:34:17.087Z,82.58
2022-10-16T13:35:19.602Z,82.76
2022-10-16T13:36:22.124Z,83.04
2022-10-16T13:37:27.514Z,83.07
2022-10-16T13:38:31.136Z,83.39
2022-10-16T13:39:33.348Z,84.62
2022-10-16T13:40:37.444Z,84.27
2022-10-16T13:41:39.804Z,83.44
2022-10-16T13:42:42.280Z,82.96
2022-10-16T13:43:46.366Z,83.52
2022-10-16T13:44:50.318Z,84.34
2022-10-16T13:45:52.671Z,84.25
2022-10-16T13:46:56.790Z,84.50
2022-10-16T13:47:59.204Z,83.96
2022-10-16T13:49:01.700Z,83.32
2022-10-16T13:50:04.190Z,83.73
2022-10-16T13:51:06.647Z,83.91
2022-10-16T13:52:09.241Z,84.38
2022-10-16T13:53:11.683Z,85.18
2022-10-16T13:54:14.163Z,85.19
2022-10-16T13:55:16.743Z,84.04
2022-10-16T13:56:19.181Z,84.87
2022-10-16T13:57:27.049Z,85.01
2022-10-16T13:58:25.708Z,84.36
2022-10-16T13:59:29.202Z,83.72
2022-10-16T14:00:31.728Z,83.61
2022-10-16T14:01:34.146Z,83.41
2022-10-16T14:02:38.199Z,84.26
2022-10-16T14:03:42.149Z,83.31
2022-10-16T14:04:44.514Z,83.24
2022-10-16T14:05:47.009Z,82.96
2022-10-16T14:06:49.578Z,83.33
2022-10-16T14:07:52.135Z,83.70
2022-10-16T14:08:54.604Z,83.47
2022-10-16T14:09:58.756Z,83.38
2022-10-16T14:11:01.099Z,83.96
2022-10-16T14:20:33.510Z,85.99
2022-10-16T14:21:35.990Z,86.19
2022-10-16T14:22:38.582Z,86.83
2022-10-16T14:23:41.066Z,86.81
2022-10-16T14:24:43.591Z,86.69
2022-10-16T14:25:46.083Z,86.71
2022-10-16T14:26:50.977Z,86.43
2022-10-16T14:27:51.188Z,86.14
2022-10-16T14:28:53.659Z,86.12
2022-10-16T14:29:57.690Z,85.92
2022-10-16T14:31:00.090Z,85.01
2022-10-16T14:32:04.143Z,85.41
2022-10-16T14:33:06.529Z,85.41
2022-10-16T14:34:09.075Z,85.87
2022-10-16T14:35:11.486Z,86.11
2022-10-16T14:36:13.979Z,85.64
2022-10-16T14:37:16.493Z,86.45
2022-10-16T14:38:18.983Z,86.39
2022-10-16T14:39:21.455Z,86.81
2022-10-16T14:40:23.949Z,86.88
2022-10-16T14:41:26.408Z,87.06
2022-10-16T14:42:28.926Z,87.48
2022-10-16T14:43:31.462Z,87.93
2022-10-16T14:44:33.950Z,88.28
2022-10-16T14:45:36.450Z,88.47
2022-10-16T14:46:38.951Z,88.49
2022-10-16T14:47:41.439Z,88.37
2022-10-16T14:48:43.913Z,88.97
2022-10-16T14:49:46.419Z,89.24
2022-10-16T14:50:48.836Z,89.40
2022-10-16T14:51:51.363Z,89.46
2022-10-16T14:52:53.916Z,89.28
2022-10-16T14:53:59.913Z,89.31
2022-10-16T14:54:58.854Z,89.42
2022-10-16T14:56:01.387Z,89.44
2022-10-16T14:57:03.877Z,89.15
2022-10-16T14:58:06.392Z,89.44
2022-10-16T14:59:08.873Z,89.88
2022-10-16T15:00:12.975Z,89.44
2022-10-16T15:01:16.891Z,89.69
2022-10-16T15:02:19.279Z,89.86
2022-10-16T15:03:23.450Z,89.80
2022-10-16T15:04:25.712Z,89.78
2022-10-16T15:05:28.169Z,90.12
2022-10-16T15:06:32.258Z,89.96
2022-10-16T15:07:36.215Z,89.76
2022-10-16T15:08:40.209Z,89.86
2022-10-16T15:09:46.456Z,90.10
2022-10-16T15:10:45.080Z,89.63
2022-10-16T15:11:47.619Z,89.71
2022-10-16T15:12:50.138Z,89.76
2022-10-16T15:13:54.266Z,89.42
2022-10-16T15:14:58.256Z,89.80
2022-10-16T15:16:00.649Z,89.99
2022-10-16T15:17:03.060Z,89.78
2022-10-16T15:18:05.661Z,89.68
2022-10-16T15:19:08.115Z,89.68
2022-10-16T15:20:11.591Z,89.82
2022-10-16T15:21:15.584Z,90.00
2022-10-16T15:22:17.965Z,89.60
2022-10-16T15:23:22.149Z,89.98
2022-10-16T15:24:26.022Z,89.87
2022-10-16T15:25:28.400Z,90.08
2022-10-16T15:26:30.884Z,90.26
2022-10-16T15:27:33.373Z,90.13
2022-10-16T15:28:35.933Z,90.20
2022-10-16T15:29:39.931Z,90.49
2022-10-16T15:30:43.906Z,90.88
2022-10-16T15:31:47.918Z,91.11
2022-10-16T15:32:51.846Z,91.08
2022-10-16T15:33:54.184Z,90.95
2022-10-16T15:34:56.641Z,90.71
2022-10-16T15:35:59.124Z,90.79
2022-10-16T15:37:01.631Z,90.85
2022-10-16T15:38:04.099Z,90.87
2022-10-16T15:39:08.225Z,91.18
2022-10-16T15:40:10.591Z,91.17
2022-10-16T15:41:13.071Z,91.19
2022-10-16T15:42:15.594Z,91.33
2022-10-16T15:43:18.994Z,91.52
2022-10-16T15:44:22.958Z,91.60
2022-10-16T15:45:27.089Z,91.67
2022-10-16T15:46:31.188Z,91.78
2022-10-16T15:47:33.413Z,92.06
2022-10-16T15:48:35.983Z,91.94
2022-10-16T15:49:40.045Z,91.74
2022-10-16T15:51:47.322Z,91.66
2022-10-16T15:52:49.763Z,91.84
2022-10-16T15:53:52.283Z,91.85
2022-10-16T15:54:54.728Z,91.83
2022-10-16T15:55:57.239Z,91.92
2022-10-16T15:57:01.407Z,92.14
2022-10-16T15:58:03.743Z,92.17
2022-10-16T15:59:06.196Z,92.43
2022-10-16T16:00:10.546Z,92.36
2022-10-16T16:01:12.838Z,92.40
2022-10-16T16:02:16.807Z,92.46
2022-10-16T16:03:19.136Z,92.26
2022-10-16T16:05:24.111Z,92.31
2022-10-16T16:06:26.584Z,92.61
2022-10-16T16:07:30.775Z,92.44
2022-10-16T16:08:34.726Z,92.38
2022-10-16T16:27:40.738Z,95.67
2022-10-16T16:28:43.263Z,95.93
2022-10-16T16:38:18.486Z,96.67
2022-10-16T16:47:50.768Z,97.91
2022-10-16T16:57:25.696Z,99.21
2022-10-16T17:06:59.698Z,100.00
2022-10-16T17:16:36.079Z,100.00
2022-10-16T17:26:08.715Z,100.00
2022-10-16T17:35:42.947Z,100.00
2022-10-16T17:45:18.993Z,100.00
2022-10-16T17:54:51.664Z,100.00
2022-10-16T18:04:26.055Z,100.00
2022-10-16T18:14:00.429Z,100.00
2022-10-16T18:23:34.531Z,100.00
2022-10-16T18:33:09.037Z,100.00
2022-10-16T18:42:43.586Z,100.00
2022-10-16T18:52:17.728Z,100.00
2022-10-16T19:01:51.962Z,100.00
2022-10-16T19:11:26.005Z,100.00
2022-10-16T19:21:00.373Z,100.00
2022-10-16T19:30:34.601Z,100.00
2022-10-16T19:40:09.460Z,100.00
2022-10-16T19:49:45.821Z,100.00
2022-10-16T19:59:20.278Z,100.00
2022-10-16T20:08:54.438Z,100.00
2022-10-16T20:18:26.908Z,100.00
2022-10-16T20:28:00.940Z,100.00
2022-10-16T20:37:35.220Z,100.00
2022-10-16T20:47:10.588Z,100.00
2022-10-16T20:48:12.959Z,100.00
2022-10-16T20:57:47.819Z,100.00
2022-10-16T21:07:21.040Z,100.00
2022-10-16T21:16:55.341Z,100.00
2022-10-16T21:26:29.930Z,100.00
2022-10-16T21:36:04.153Z,100.00
2022-10-16T21:45:40.165Z,100.00
2022-10-16T21:55:13.223Z,100.00
2022-10-16T22:04:49.491Z,100.00
2022-10-16T22:14:22.517Z,100.00
2022-10-16T22:23:56.787Z,100.00
2022-10-16T22:43:05.984Z,100.00
2022-10-16T22:52:40.167Z,100.00
2022-10-16T23:02:16.167Z,100.00
2022-10-16T23:11:50.433Z,100.00
2022-10-16T23:21:24.381Z,100.00
2022-10-16T23:30:58.842Z,100.00
2022-10-16T23:40:33.185Z,100.00
2022-10-16T23:50:05.647Z,100.00
2022-10-16T23:59:40.075Z,100.00
